createdAt,value
2018-05-15T00:00:17.132Z,69.81
2018-05-15T00:00:53.946Z,69.24
2018-05-15T00:01:29.272Z,69.24
2018-05-15T00:02:04.931Z,69.14
2018-05-15T00:02:41.224Z,68.57
2018-05-15T00:03:16.319Z,68.57
2018-05-15T00:03:51.666Z,68.47
2018-05-15T00:04:26.932Z,68.76
2018-05-15T00:05:02.775Z,68.47
2018-05-15T00:05:39.705Z,69.34
2018-05-15T00:06:15.496Z,69.43
2018-05-15T00:06:52.236Z,68.95
2018-05-15T00:07:27.647Z,69.34
2018-05-15T00:08:03.146Z,68.37
2018-05-15T00:08:39.209Z,68.95
2018-05-15T00:09:14.502Z,70.10
2018-05-15T00:09:50.230Z,69.91
2018-05-15T00:11:05.732Z,68.28
2018-05-15T00:11:41.110Z,67.99
2018-05-15T00:12:16.657Z,69.43
2018-05-15T00:12:51.918Z,69.43
2018-05-15T00:13:27.739Z,70.78
2018-05-15T00:14:03.441Z,70.58
2018-05-15T00:14:38.827Z,70.87
2018-05-15T00:15:14.291Z,70.49
2018-05-15T00:15:49.835Z,70.39
2018-05-15T00:16:24.980Z,70.58
2018-05-15T00:17:00.414Z,69.34
2018-05-15T00:17:36.728Z,71.06
2018-05-15T00:18:12.305Z,70.68
2018-05-15T00:18:47.797Z,70.20
2018-05-15T00:19:26.319Z,70.49
2018-05-15T00:20:03.276Z,71.45
2018-05-15T00:20:40.472Z,70.01
2018-05-15T00:21:16.001Z,70.58
2018-05-15T00:21:51.342Z,70.58
2018-05-15T00:22:26.907Z,70.10
2018-05-15T00:23:02.312Z,69.20
2018-05-15T00:23:37.440Z,69.81
2018-05-15T00:24:12.936Z,69.40
2018-05-15T00:24:49.423Z,69.49
2018-05-15T00:25:24.795Z,70.26
2018-05-15T00:26:00.284Z,70.45
2018-05-15T00:26:35.673Z,71.03
2018-05-15T00:27:10.899Z,70.26
2018-05-15T00:27:47.217Z,70.45
2018-05-15T00:28:22.338Z,71.31
2018-05-15T00:28:57.999Z,70.45
2018-05-15T00:29:33.448Z,70.55
2018-05-15T00:30:08.955Z,70.45
2018-05-15T00:30:45.353Z,70.64
2018-05-15T00:31:20.477Z,70.84
2018-05-15T00:31:55.863Z,70.64
2018-05-15T00:32:30.929Z,71.61
2018-05-15T00:33:06.605Z,71.12
2018-05-15T00:33:42.203Z,70.45
2018-05-15T00:34:17.711Z,71.03
2018-05-15T00:34:54.354Z,71.22
2018-05-15T00:35:29.832Z,71.41
2018-05-15T00:36:05.296Z,71.41
2018-05-15T00:36:41.256Z,70.64
2018-05-15T00:37:18.071Z,71.03
2018-05-15T00:37:53.417Z,71.03
2018-05-15T00:38:28.778Z,70.26
2018-05-15T00:39:03.976Z,69.68
2018-05-15T00:39:40.141Z,71.41
2018-05-15T00:40:15.636Z,71.31
2018-05-15T00:40:51.401Z,70.45
2018-05-15T00:41:26.650Z,70.32
2018-05-15T00:42:02.346Z,71.37
2018-05-15T00:42:38.282Z,72.18
2018-05-15T00:43:14.461Z,71.12
2018-05-15T00:43:49.735Z,71.03
2018-05-15T00:44:25.069Z,70.32
2018-05-15T00:45:00.708Z,71.37
2018-05-15T00:45:35.909Z,70.61
2018-05-15T00:46:11.488Z,70.55
2018-05-15T00:46:48.135Z,69.93
2018-05-15T00:47:23.798Z,69.26
2018-05-15T00:47:59.457Z,69.26
2018-05-15T00:48:34.691Z,70.23
2018-05-15T00:49:10.062Z,71.09
2018-05-15T00:49:47.020Z,70.03
2018-05-15T00:50:22.711Z,70.03
2018-05-15T00:50:58.483Z,70.42
2018-05-15T00:51:33.653Z,70.61
2018-05-15T00:52:09.505Z,69.93
2018-05-15T00:52:44.865Z,69.56
2018-05-15T00:53:20.245Z,70.70
2018-05-15T00:53:55.587Z,70.13
2018-05-15T00:54:31.293Z,69.74
2018-05-15T00:55:06.665Z,69.56
2018-05-15T00:55:42.133Z,69.56
2018-05-15T00:56:17.411Z,69.46
2018-05-15T00:56:52.890Z,70.23
2018-05-15T00:57:28.362Z,69.46
2018-05-15T00:58:03.775Z,69.46
2018-05-15T00:58:39.130Z,68.50
2018-05-15T00:59:14.982Z,69.36
2018-05-15T00:59:50.084Z,69.36
2018-05-15T01:00:25.411Z,68.79
2018-05-15T01:01:01.325Z,69.36
2018-05-15T01:01:36.870Z,69.93
2018-05-15T01:02:12.223Z,69.74
2018-05-15T01:02:47.616Z,68.69
2018-05-15T01:03:23.053Z,68.50
2018-05-15T01:03:59.120Z,68.21
2018-05-15T01:04:34.474Z,69.17
2018-05-15T01:05:09.880Z,69.07
2018-05-15T01:05:47.480Z,68.21
2018-05-15T01:06:22.968Z,68.79
2018-05-15T01:06:58.346Z,68.21
2018-05-15T01:07:33.751Z,68.30
2018-05-15T01:08:09.127Z,67.92
2018-05-15T01:08:44.829Z,68.21
2018-05-15T01:09:19.870Z,67.83
2018-05-15T01:09:55.328Z,68.21
2018-05-15T01:10:30.776Z,67.92
2018-05-15T01:11:06.346Z,68.40
2018-05-15T01:11:41.698Z,68.12
2018-05-15T01:12:17.226Z,68.21
2018-05-15T01:12:52.692Z,68.40
2018-05-15T01:13:28.320Z,68.18
2018-05-15T01:14:03.806Z,68.50
2018-05-15T01:14:39.034Z,69.04
2018-05-15T01:15:16.014Z,69.07
2018-05-15T01:15:51.505Z,69.46
2018-05-15T01:16:26.760Z,68.50
2018-05-15T01:17:02.290Z,67.32
2018-05-15T01:17:37.796Z,68.59
2018-05-15T01:18:13.091Z,69.46
2018-05-15T01:18:50.135Z,69.13
2018-05-15T01:19:23.721Z,68.85
2018-05-15T01:19:59.089Z,68.08
2018-05-15T01:20:34.406Z,68.46
2018-05-15T01:21:09.975Z,68.46
2018-05-15T01:21:45.635Z,69.04
2018-05-15T01:22:21.111Z,68.27
2018-05-15T01:22:56.491Z,69.13
2018-05-15T01:23:31.633Z,68.85
2018-05-15T01:24:06.883Z,68.66
2018-05-15T01:24:42.503Z,69.23
2018-05-15T01:25:17.857Z,69.81
2018-05-15T01:25:53.397Z,68.37
2018-05-15T01:26:29.161Z,68.08
2018-05-15T01:27:04.449Z,68.75
2018-05-15T01:27:40.111Z,69.33
2018-05-15T01:28:15.529Z,69.04
2018-05-15T01:28:50.908Z,68.66
2018-05-15T01:29:26.284Z,68.95
2018-05-15T01:30:01.636Z,69.33
2018-05-15T01:30:37.408Z,69.13
2018-05-15T01:31:12.659Z,69.33
2018-05-15T01:31:50.245Z,69.13
2018-05-15T01:32:25.837Z,69.13
2018-05-15T01:33:00.850Z,68.37
2018-05-15T01:33:36.705Z,68.08
2018-05-15T01:34:11.902Z,67.79
2018-05-15T01:34:48.087Z,68.56
2018-05-15T01:35:23.476Z,67.89
2018-05-15T01:36:00.781Z,68.27
2018-05-15T01:36:36.421Z,67.99
2018-05-15T01:37:12.258Z,67.60
2018-05-15T01:37:48.447Z,68.18
2018-05-15T01:38:23.911Z,68.95
2018-05-15T01:38:59.626Z,68.08
2018-05-15T01:39:35.124Z,67.12
2018-05-15T01:40:11.767Z,68.18
2018-05-15T01:40:47.098Z,68.46
2018-05-15T01:41:22.969Z,68.46
2018-05-15T01:41:59.127Z,68.75
2018-05-15T01:42:34.358Z,68.46
2018-05-15T01:43:10.150Z,68.46
2018-05-15T01:43:45.453Z,68.08
2018-05-15T01:44:20.527Z,69.04
2018-05-15T01:44:59.310Z,68.46
2018-05-15T01:45:35.866Z,68.95
2018-05-15T01:46:11.149Z,69.71
2018-05-15T01:46:52.367Z,69.13
2018-05-15T01:47:28.184Z,69.33
2018-05-15T01:48:04.653Z,68.75
2018-05-15T01:48:39.937Z,69.13
2018-05-15T01:49:16.714Z,69.42
2018-05-15T01:49:55.319Z,68.27
2018-05-15T01:50:30.763Z,68.75
2018-05-15T01:51:06.439Z,68.95
2018-05-15T01:51:41.737Z,69.33
2018-05-15T01:52:16.956Z,68.66
2018-05-15T01:52:55.482Z,69.42
2018-05-15T01:53:31.001Z,69.71
2018-05-15T01:54:06.508Z,69.71
2018-05-15T01:54:41.741Z,69.42
2018-05-15T01:55:17.273Z,69.42
2018-05-15T01:55:52.590Z,68.66
2018-05-15T01:56:29.414Z,68.18
2018-05-15T01:57:04.730Z,68.46
2018-05-15T01:57:41.160Z,69.13
2018-05-15T01:58:16.782Z,69.13
2018-05-15T01:58:53.247Z,69.29
2018-05-15T01:59:28.507Z,68.66
2018-05-15T02:00:04.857Z,69.13
2018-05-15T02:00:40.297Z,70.38
2018-05-15T02:01:15.695Z,69.90
2018-05-15T02:01:56.322Z,69.52
2018-05-15T02:02:31.738Z,69.23
2018-05-15T02:03:09.984Z,69.29
2018-05-15T02:03:48.350Z,69.52
2018-05-15T02:04:24.993Z,68.85
2018-05-15T02:05:02.600Z,69.10
2018-05-15T02:05:38.294Z,68.33
2018-05-15T02:06:15.564Z,68.05
2018-05-15T02:06:50.718Z,69.01
2018-05-15T02:07:27.779Z,69.68
2018-05-15T02:08:03.044Z,68.91
2018-05-15T02:08:38.568Z,69.58
2018-05-15T02:09:14.467Z,68.43
2018-05-15T02:09:49.752Z,68.72
2018-05-15T02:10:25.200Z,68.91
2018-05-15T02:11:00.698Z,69.10
2018-05-15T02:11:35.924Z,68.91
2018-05-15T02:12:11.415Z,69.58
2018-05-15T02:12:48.629Z,70.06
2018-05-15T02:13:27.496Z,69.96
2018-05-15T02:14:02.825Z,69.29
2018-05-15T02:14:42.311Z,70.54
2018-05-15T02:15:19.172Z,70.06
2018-05-15T02:15:54.855Z,70.54
2018-05-15T02:16:33.501Z,69.58
2018-05-15T02:17:09.050Z,70.44
2018-05-15T02:17:47.464Z,69.39
2018-05-15T02:18:24.092Z,69.77
2018-05-15T02:18:59.508Z,69.10
2018-05-15T02:19:34.771Z,69.58
2018-05-15T02:20:09.766Z,70.06
2018-05-15T02:20:46.123Z,69.10
2018-05-15T02:21:22.897Z,69.96
2018-05-15T02:21:58.063Z,70.44
2018-05-15T02:22:33.306Z,69.96
2018-05-15T02:23:11.964Z,69.96
2018-05-15T02:23:47.303Z,69.68
2018-05-15T02:24:22.597Z,70.35
2018-05-15T02:24:57.866Z,70.35
2018-05-15T02:25:33.348Z,69.68
2018-05-15T02:26:10.129Z,68.81
2018-05-15T02:26:49.208Z,69.39
2018-05-15T02:27:26.746Z,69.48
2018-05-15T02:28:02.418Z,69.01
2018-05-15T02:28:39.317Z,68.52
2018-05-15T02:29:14.641Z,70.15
2018-05-15T02:29:49.727Z,70.92
2018-05-15T02:30:26.777Z,70.44
2018-05-15T02:31:03.237Z,70.25
2018-05-15T02:31:38.807Z,70.25
2018-05-15T02:32:13.895Z,69.87
2018-05-15T02:32:49.327Z,69.87
2018-05-15T02:33:25.387Z,70.64
2018-05-15T02:34:01.773Z,69.68
2018-05-15T02:34:37.387Z,70.54
2018-05-15T02:35:12.961Z,69.01
2018-05-15T02:35:51.364Z,69.29
2018-05-15T02:36:26.701Z,70.03
2018-05-15T02:37:02.149Z,69.29
2018-05-15T02:37:39.812Z,69.10
2018-05-15T02:38:18.967Z,69.29
2018-05-15T02:38:54.266Z,70.06
2018-05-15T02:39:30.507Z,69.10
2018-05-15T02:40:06.216Z,68.78
2018-05-15T02:40:42.045Z,68.91
2018-05-15T02:41:17.610Z,69.48
2018-05-15T02:41:53.301Z,69.96
2018-05-15T02:42:28.558Z,70.44
2018-05-15T02:43:04.102Z,71.02
2018-05-15T02:43:39.495Z,71.02
2018-05-15T02:44:14.757Z,71.02
2018-05-15T02:44:50.162Z,69.77
2018-05-15T02:45:27.373Z,69.83
2018-05-15T02:46:02.906Z,70.41
2018-05-15T02:46:38.590Z,69.83
2018-05-15T02:47:14.073Z,69.45
2018-05-15T02:47:49.487Z,70.41
2018-05-15T02:48:26.223Z,70.31
2018-05-15T02:49:01.936Z,71.78
2018-05-15T02:49:37.596Z,71.11
2018-05-15T02:50:13.056Z,71.37
2018-05-15T02:50:51.906Z,71.59
2018-05-15T02:51:27.279Z,71.46
2018-05-15T02:52:02.710Z,71.37
2018-05-15T02:52:37.902Z,70.21
2018-05-15T02:53:13.353Z,71.84
2018-05-15T02:53:48.667Z,71.66
2018-05-15T02:54:26.623Z,70.60
2018-05-15T02:55:04.957Z,72.23
2018-05-15T02:55:43.353Z,72.42
2018-05-15T02:56:18.283Z,72.80
2018-05-15T02:56:53.477Z,72.23
2018-05-15T02:57:28.848Z,71.75
2018-05-15T02:58:04.322Z,72.13
2018-05-15T02:58:39.851Z,71.75
2018-05-15T02:59:15.141Z,72.61
2018-05-15T02:59:50.593Z,72.23
2018-05-15T03:00:26.342Z,72.13
2018-05-15T03:01:01.811Z,73.47
2018-05-15T03:01:36.923Z,72.52
2018-05-15T03:02:12.435Z,72.52
2018-05-15T03:02:47.807Z,72.52
2018-05-15T03:03:23.396Z,72.23
2018-05-15T03:03:58.643Z,72.13
2018-05-15T03:04:33.839Z,72.32
2018-05-15T03:05:09.464Z,72.71
2018-05-15T03:05:44.975Z,72.03
2018-05-15T03:06:20.421Z,72.13
2018-05-15T03:06:55.690Z,72.52
2018-05-15T03:07:31.161Z,73.66
2018-05-15T03:08:06.447Z,72.42
2018-05-15T03:08:41.989Z,73.57
2018-05-15T03:09:17.349Z,72.32
2018-05-15T03:09:52.680Z,72.13
2018-05-15T03:10:28.317Z,72.13
2018-05-15T03:11:03.417Z,73.28
2018-05-15T03:11:38.831Z,72.99
2018-05-15T03:12:14.245Z,73.95
2018-05-15T03:12:49.763Z,73.57
2018-05-15T03:13:25.302Z,74.82
2018-05-15T03:14:00.407Z,73.86
2018-05-15T03:14:35.823Z,73.19
2018-05-15T03:15:11.226Z,72.90
2018-05-15T03:15:47.609Z,74.05
2018-05-15T03:16:23.144Z,74.05
2018-05-15T03:16:58.572Z,73.66
2018-05-15T03:17:33.927Z,73.38
2018-05-15T03:18:09.217Z,73.38
2018-05-15T03:18:44.717Z,72.71
2018-05-15T03:19:20.267Z,73.38
2018-05-15T03:19:55.378Z,73.19
2018-05-15T03:20:30.756Z,73.66
2018-05-15T03:21:05.968Z,73.05
2018-05-15T03:21:41.080Z,73.72
2018-05-15T03:22:16.511Z,73.82
2018-05-15T03:22:51.602Z,74.82
2018-05-15T03:23:26.821Z,74.91
2018-05-15T03:24:02.043Z,74.72
2018-05-15T03:24:37.256Z,75.48
2018-05-15T03:25:12.696Z,75.39
2018-05-15T03:25:48.765Z,75.20
2018-05-15T03:26:24.411Z,75.29
2018-05-15T03:26:59.820Z,73.76
2018-05-15T03:27:35.443Z,73.95
2018-05-15T03:28:10.900Z,74.05
2018-05-15T03:28:47.240Z,74.33
2018-05-15T03:29:22.685Z,73.72
2018-05-15T03:29:58.262Z,73.76
2018-05-15T03:30:33.607Z,74.43
2018-05-15T03:31:09.036Z,74.68
2018-05-15T03:31:44.327Z,74.82
2018-05-15T03:32:19.587Z,74.91
2018-05-15T03:32:54.979Z,74.62
2018-05-15T03:33:30.417Z,74.30
2018-05-15T03:34:05.772Z,74.68
2018-05-15T03:34:41.023Z,75.39
2018-05-15T03:35:16.475Z,75.35
2018-05-15T03:35:51.883Z,74.58
2018-05-15T03:36:27.427Z,73.91
2018-05-15T03:37:02.934Z,74.20
2018-05-15T03:37:38.390Z,74.68
2018-05-15T03:38:13.610Z,75.54
2018-05-15T03:38:49.047Z,74.87
2018-05-15T03:39:24.301Z,74.68
2018-05-15T03:39:59.803Z,74.77
2018-05-15T03:40:35.387Z,74.58
2018-05-15T03:41:10.619Z,75.54
2018-05-15T03:41:46.044Z,74.72
2018-05-15T03:42:21.560Z,75.45
2018-05-15T03:42:56.951Z,76.50
2018-05-15T03:43:32.635Z,75.54
2018-05-15T03:44:08.199Z,75.35
2018-05-15T03:44:43.974Z,75.07
2018-05-15T03:45:19.314Z,75.83
2018-05-15T03:45:55.209Z,75.48
2018-05-15T03:46:30.578Z,75.58
2018-05-15T03:47:06.038Z,75.83
2018-05-15T03:47:41.376Z,75.45
2018-05-15T03:48:17.021Z,74.30
2018-05-15T03:48:52.573Z,74.68
2018-05-15T03:49:28.283Z,75.54
2018-05-15T03:50:03.639Z,75.54
2018-05-15T03:50:40.022Z,75.26
2018-05-15T03:51:15.388Z,75.07
2018-05-15T03:51:50.628Z,74.68
2018-05-15T03:52:25.901Z,74.68
2018-05-15T03:53:01.394Z,75.35
2018-05-15T03:53:36.982Z,75.54
2018-05-15T03:54:12.076Z,75.45
2018-05-15T03:54:47.505Z,75.64
2018-05-15T03:55:23.194Z,75.73
2018-05-15T03:55:58.619Z,76.21
2018-05-15T03:56:34.290Z,75.83
2018-05-15T03:57:09.826Z,76.02
2018-05-15T03:57:45.158Z,75.93
2018-05-15T03:58:20.673Z,76.06
2018-05-15T03:58:56.030Z,76.02
2018-05-15T03:59:31.474Z,74.97
2018-05-15T04:00:07.052Z,75.39
2018-05-15T04:00:46.000Z,76.12
2018-05-15T04:01:21.379Z,76.12
2018-05-15T04:01:56.650Z,75.64
2018-05-15T04:02:32.118Z,75.35
2018-05-15T04:03:07.481Z,75.73
2018-05-15T04:03:42.678Z,75.73
2018-05-15T04:04:18.454Z,75.93
2018-05-15T04:04:54.239Z,76.60
2018-05-15T04:05:29.688Z,77.17
2018-05-15T04:06:04.897Z,76.98
2018-05-15T04:06:42.662Z,76.60
2018-05-15T04:07:18.350Z,75.73
2018-05-15T04:07:54.218Z,74.97
2018-05-15T04:08:29.988Z,75.07
2018-05-15T04:09:05.253Z,75.16
2018-05-15T04:09:40.547Z,75.64
2018-05-15T04:10:15.572Z,76.69
2018-05-15T04:10:51.229Z,76.21
2018-05-15T04:11:26.478Z,76.60
2018-05-15T04:12:02.115Z,75.83
2018-05-15T04:12:37.617Z,76.21
2018-05-15T04:13:12.999Z,76.02
2018-05-15T04:13:48.363Z,75.93
2018-05-15T04:14:23.932Z,75.73
2018-05-15T04:14:59.229Z,75.54
2018-05-15T04:15:34.592Z,75.54
2018-05-15T04:16:10.012Z,74.77
2018-05-15T04:16:45.637Z,75.35
2018-05-15T04:17:20.853Z,76.50
2018-05-15T04:17:56.208Z,75.93
2018-05-15T04:18:31.726Z,75.45
2018-05-15T04:19:07.136Z,75.54
2018-05-15T04:19:42.603Z,75.73
2018-05-15T04:20:17.729Z,76.02
2018-05-15T04:20:52.920Z,76.40
2018-05-15T04:21:29.982Z,76.69
2018-05-15T04:22:06.414Z,76.89
2018-05-15T04:22:41.963Z,75.93
2018-05-15T04:23:17.100Z,75.45
2018-05-15T04:23:52.716Z,75.73
2018-05-15T04:24:28.356Z,75.45
2018-05-15T04:25:03.724Z,75.54
2018-05-15T04:25:39.452Z,75.54
2018-05-15T04:26:14.892Z,75.73
2018-05-15T04:26:50.978Z,75.83
2018-05-15T04:27:26.200Z,75.73
2018-05-15T04:28:01.943Z,76.02
2018-05-15T04:28:38.015Z,77.46
2018-05-15T04:29:13.480Z,77.65
2018-05-15T04:29:48.805Z,76.98
2018-05-15T04:30:24.439Z,76.12
2018-05-15T04:30:59.759Z,76.89
2018-05-15T04:31:35.218Z,78.22
2018-05-15T04:32:10.680Z,77.75
2018-05-15T04:32:46.134Z,77.36
2018-05-15T04:33:21.738Z,76.79
2018-05-15T04:33:57.283Z,76.60
2018-05-15T04:34:32.466Z,77.26
2018-05-15T04:35:07.713Z,76.69
2018-05-15T04:35:43.303Z,75.93
2018-05-15T04:36:18.647Z,76.69
2018-05-15T04:36:54.243Z,76.12
2018-05-15T04:37:29.311Z,76.02
2018-05-15T04:38:04.566Z,76.79
2018-05-15T04:38:40.003Z,77.94
2018-05-15T04:39:16.009Z,76.89
2018-05-15T04:39:51.635Z,75.93
2018-05-15T04:40:27.696Z,77.08
2018-05-15T04:41:03.159Z,77.46
2018-05-15T04:41:38.600Z,77.55
2018-05-15T04:42:14.121Z,76.98
2018-05-15T04:42:51.237Z,76.69
2018-05-15T04:43:26.592Z,76.98
2018-05-15T04:44:02.025Z,76.02
2018-05-15T04:44:37.172Z,76.50
2018-05-15T04:45:12.554Z,75.45
2018-05-15T04:45:48.334Z,76.40
2018-05-15T04:46:23.691Z,76.40
2018-05-15T04:47:01.570Z,77.17
2018-05-15T04:47:36.937Z,76.79
2018-05-15T04:48:12.513Z,77.17
2018-05-15T04:48:47.861Z,76.69
2018-05-15T04:49:23.317Z,76.98
2018-05-15T04:49:58.742Z,76.79
2018-05-15T04:50:34.210Z,77.36
2018-05-15T04:51:09.449Z,77.17
2018-05-15T04:51:44.808Z,76.60
2018-05-15T04:52:20.235Z,76.60
2018-05-15T04:52:55.923Z,76.12
2018-05-15T04:53:31.611Z,76.12
2018-05-15T04:54:06.928Z,75.93
2018-05-15T04:54:44.293Z,75.93
2018-05-15T04:55:19.534Z,75.35
2018-05-15T04:55:54.815Z,76.89
2018-05-15T04:56:30.781Z,76.12
2018-05-15T04:57:06.079Z,74.68
2018-05-15T04:57:41.084Z,75.64
2018-05-15T04:58:16.447Z,75.48
2018-05-15T04:58:52.201Z,75.64
2018-05-15T04:59:27.881Z,76.15
2018-05-15T05:00:03.393Z,76.73
2018-05-15T05:00:39.531Z,76.35
2018-05-15T05:01:17.604Z,75.68
2018-05-15T05:01:54.099Z,75.48
2018-05-15T05:02:29.542Z,75.48
2018-05-15T05:03:06.902Z,75.10
2018-05-15T05:03:42.573Z,74.91
2018-05-15T05:04:17.902Z,75.39
2018-05-15T05:04:55.843Z,75.10
2018-05-15T05:05:31.058Z,75.48
2018-05-15T05:06:06.263Z,74.91
2018-05-15T05:06:41.784Z,74.62
2018-05-15T05:07:17.091Z,74.62
2018-05-15T05:07:52.351Z,74.91
2018-05-15T05:08:27.920Z,74.91
2018-05-15T05:09:03.396Z,75.20
2018-05-15T05:09:39.356Z,75.20
2018-05-15T05:10:14.695Z,74.82
2018-05-15T05:10:50.199Z,75.10
2018-05-15T05:11:28.326Z,74.91
2018-05-15T05:12:03.781Z,74.82
2018-05-15T05:12:39.415Z,74.33
2018-05-15T05:13:14.928Z,74.52
2018-05-15T05:13:50.277Z,74.62
2018-05-15T05:14:26.864Z,74.72
2018-05-15T05:15:04.268Z,74.82
2018-05-15T05:15:39.697Z,75.10
2018-05-15T05:16:16.109Z,73.90
2018-05-15T05:16:51.566Z,74.15
2018-05-15T05:17:27.226Z,74.57
2018-05-15T05:18:02.639Z,74.18
2018-05-15T05:18:38.067Z,73.80
2018-05-15T05:19:13.516Z,74.33
2018-05-15T05:19:48.823Z,74.37
2018-05-15T05:20:24.349Z,73.99
2018-05-15T05:21:03.003Z,73.61
2018-05-15T05:21:38.175Z,73.90
2018-05-15T05:22:13.843Z,73.61
2018-05-15T05:22:49.152Z,73.41
2018-05-15T05:23:24.510Z,73.80
2018-05-15T05:23:59.831Z,73.99
2018-05-15T05:24:35.028Z,73.99
2018-05-15T05:25:10.405Z,74.08
2018-05-15T05:25:49.250Z,73.51
2018-05-15T05:26:25.046Z,72.27
2018-05-15T05:27:00.367Z,73.32
2018-05-15T05:27:35.706Z,73.99
2018-05-15T05:28:10.812Z,73.90
2018-05-15T05:28:46.474Z,73.80
2018-05-15T05:29:21.845Z,73.41
2018-05-15T05:29:57.331Z,72.84
2018-05-15T05:30:32.519Z,72.64
2018-05-15T05:31:08.349Z,71.63
2018-05-15T05:31:46.304Z,72.45
2018-05-15T05:32:23.110Z,71.69
2018-05-15T05:32:58.356Z,72.39
2018-05-15T05:33:33.988Z,72.39
2018-05-15T05:34:09.775Z,72.01
2018-05-15T05:34:47.050Z,71.92
2018-05-15T05:35:22.392Z,71.53
2018-05-15T05:35:57.831Z,71.15
2018-05-15T05:36:33.129Z,71.44
2018-05-15T05:37:08.621Z,70.48
2018-05-15T05:37:45.075Z,70.19
2018-05-15T05:38:20.577Z,70.67
2018-05-15T05:38:56.911Z,70.86
2018-05-15T05:39:32.245Z,70.09
2018-05-15T05:40:08.233Z,69.56
2018-05-15T05:40:44.998Z,69.74
2018-05-15T05:41:20.427Z,69.84
2018-05-15T05:41:55.640Z,70.32
2018-05-15T05:42:31.162Z,69.36
2018-05-15T05:43:06.682Z,68.98
2018-05-15T05:43:41.996Z,68.59
2018-05-15T05:44:17.188Z,69.26
2018-05-15T05:44:52.701Z,68.91
2018-05-15T05:45:28.293Z,69.36
2018-05-15T05:46:03.578Z,68.59
2018-05-15T05:46:39.035Z,68.79
2018-05-15T05:47:14.254Z,67.73
2018-05-15T05:47:49.435Z,68.15
2018-05-15T05:48:25.217Z,67.96
2018-05-15T05:49:00.751Z,67.57
2018-05-15T05:49:36.177Z,68.44
2018-05-15T05:50:11.762Z,69.01
2018-05-15T05:50:51.487Z,69.11
2018-05-15T05:51:29.171Z,68.15
2018-05-15T05:52:05.613Z,67.38
2018-05-15T05:52:41.290Z,67.57
2018-05-15T05:53:16.930Z,68.53
2018-05-15T05:53:55.705Z,67.86
2018-05-15T05:54:34.035Z,67.41
2018-05-15T05:55:09.521Z,68.44
2018-05-15T05:55:44.874Z,68.18
2018-05-15T05:56:20.384Z,68.66
2018-05-15T05:56:57.040Z,69.34
2018-05-15T05:57:32.420Z,68.95
2018-05-15T05:58:07.787Z,69.72
2018-05-15T05:58:43.074Z,69.43
2018-05-15T05:59:18.313Z,68.57
2018-05-15T05:59:53.713Z,67.99
2018-05-15T06:00:28.913Z,67.80
2018-05-15T06:01:04.770Z,67.22
2018-05-15T06:01:40.216Z,66.87
2018-05-15T06:02:15.544Z,66.87
2018-05-15T06:02:51.252Z,66.10
2018-05-15T06:03:26.928Z,66.30
2018-05-15T06:04:02.272Z,66.97
2018-05-15T06:04:37.798Z,67.35
2018-05-15T06:05:13.177Z,67.35
2018-05-15T06:05:48.478Z,68.51
2018-05-15T06:06:23.797Z,67.54
2018-05-15T06:06:59.490Z,67.93
2018-05-15T06:07:34.922Z,68.31
2018-05-15T06:08:10.401Z,68.73
2018-05-15T06:08:45.945Z,68.79
2018-05-15T06:09:21.242Z,68.35
2018-05-15T06:09:56.640Z,68.35
2018-05-15T06:10:32.093Z,68.15
2018-05-15T06:11:07.558Z,67.68
2018-05-15T06:11:43.163Z,67.58
2018-05-15T06:12:18.442Z,68.06
2018-05-15T06:12:53.910Z,67.77
2018-05-15T06:13:29.256Z,67.48
2018-05-15T06:14:04.744Z,66.27
2018-05-15T06:14:40.281Z,66.04
2018-05-15T06:15:15.739Z,66.42
2018-05-15T06:15:51.662Z,65.75
2018-05-15T06:16:27.060Z,64.73
2018-05-15T06:17:02.389Z,64.05
2018-05-15T06:17:37.587Z,65.01
2018-05-15T06:18:13.039Z,64.43
2018-05-15T06:18:48.541Z,64.63
2018-05-15T06:19:23.907Z,64.92
2018-05-15T06:19:59.152Z,64.73
2018-05-15T06:20:34.194Z,64.92
2018-05-15T06:21:09.672Z,63.95
2018-05-15T06:21:45.262Z,64.05
2018-05-15T06:22:20.653Z,64.92
2018-05-15T06:22:56.018Z,63.57
2018-05-15T06:23:31.392Z,62.99
2018-05-15T06:24:06.998Z,63.38
2018-05-15T06:24:42.839Z,63.51
2018-05-15T06:25:18.460Z,63.99
2018-05-15T06:25:57.782Z,63.41
2018-05-15T06:26:33.232Z,63.02
2018-05-15T06:27:08.678Z,62.38
2018-05-15T06:27:45.358Z,61.71
2018-05-15T06:28:20.821Z,61.61
2018-05-15T06:28:56.182Z,61.58
2018-05-15T06:29:31.649Z,62.19
2018-05-15T06:30:07.229Z,61.61
2018-05-15T06:30:46.981Z,62.19
2018-05-15T06:31:22.468Z,61.83
2018-05-15T06:31:57.506Z,60.77
2018-05-15T06:32:32.800Z,59.65
2018-05-15T06:33:08.367Z,58.88
2018-05-15T06:33:43.887Z,58.04
2018-05-15T06:34:19.455Z,57.94
2018-05-15T06:34:54.707Z,56.79
2018-05-15T06:35:30.363Z,56.91
2018-05-15T06:36:05.556Z,57.10
2018-05-15T06:36:42.513Z,56.16
2018-05-15T06:37:17.696Z,55.30
2018-05-15T06:37:53.256Z,55.33
2018-05-15T06:38:28.692Z,54.39
2018-05-15T06:39:04.094Z,53.91
2018-05-15T06:39:39.468Z,53.11
2018-05-15T06:40:15.029Z,53.03
2018-05-15T06:40:53.788Z,53.13
2018-05-15T06:41:32.218Z,53.33
2018-05-15T06:42:10.761Z,53.35
2018-05-15T06:42:49.227Z,52.09
2018-05-15T06:43:24.642Z,52.19
2018-05-15T06:44:01.615Z,51.54
2018-05-15T06:46:38.637Z,50.12
2018-05-15T06:47:14.090Z,50.12
2018-05-15T06:47:49.216Z,49.70
2018-05-15T06:48:24.756Z,50.09
2018-05-15T06:49:01.750Z,50.21
2018-05-15T06:49:37.965Z,51.01
2018-05-15T06:50:14.350Z,50.24
2018-05-15T06:50:51.577Z,49.56
2018-05-15T06:51:30.225Z,49.10
2018-05-15T06:52:05.626Z,49.37
2018-05-15T06:52:41.179Z,49.00
2018-05-15T06:53:16.341Z,49.10
2018-05-15T06:53:52.395Z,48.83
2018-05-15T06:54:27.943Z,48.03
2018-05-15T06:55:03.104Z,49.02
2018-05-15T06:55:38.453Z,48.25
2018-05-15T06:56:16.622Z,47.28
2018-05-15T06:56:52.044Z,47.79
2018-05-15T06:57:27.356Z,47.30
2018-05-15T06:58:02.850Z,46.94
2018-05-15T06:58:40.681Z,46.36
2018-05-15T06:59:16.202Z,46.16
2018-05-15T06:59:51.489Z,46.33
2018-05-15T07:00:26.887Z,46.72
2018-05-15T07:01:05.364Z,47.20
2018-05-15T07:01:44.493Z,47.81
2018-05-15T07:02:19.846Z,46.36
2018-05-15T07:02:58.296Z,45.95
2018-05-15T07:03:33.727Z,46.72
2018-05-15T07:04:09.064Z,46.58
2018-05-15T07:04:44.189Z,47.06
2018-05-15T07:05:19.265Z,47.64
2018-05-15T07:05:57.880Z,47.52
2018-05-15T07:06:36.218Z,48.64
2018-05-15T07:07:11.585Z,48.06
2018-05-15T07:07:49.400Z,47.02
2018-05-15T07:08:24.699Z,46.92
2018-05-15T07:09:03.561Z,47.02
2018-05-15T07:09:39.101Z,46.72
2018-05-15T07:10:14.567Z,46.62
2018-05-15T07:10:50.080Z,47.13
2018-05-15T07:11:25.274Z,46.82
2018-05-15T07:12:00.943Z,46.70
2018-05-15T07:12:39.316Z,47.67
2018-05-15T07:13:17.255Z,47.96
2018-05-15T07:13:52.703Z,48.03
2018-05-15T07:14:28.238Z,50.09
2018-05-15T07:15:03.437Z,48.54
2018-05-15T07:15:39.599Z,48.90
2018-05-15T07:16:14.960Z,49.02
2018-05-15T07:16:54.357Z,47.57
2018-05-15T07:17:31.793Z,47.64
2018-05-15T07:18:08.907Z,47.94
2018-05-15T07:18:44.303Z,47.45
2018-05-15T07:19:19.643Z,48.13
2018-05-15T07:19:55.013Z,48.81
2018-05-15T07:20:30.217Z,48.52
2018-05-15T07:21:05.699Z,49.10
2018-05-15T07:21:41.263Z,48.61
2018-05-15T07:22:16.356Z,47.74
2018-05-15T07:22:51.810Z,47.57
2018-05-15T07:23:27.585Z,47.57
2018-05-15T07:24:02.975Z,47.28
2018-05-15T07:24:38.392Z,47.94
2018-05-15T07:25:15.697Z,48.25
2018-05-15T07:25:55.391Z,47.67
2018-05-15T07:26:30.720Z,47.77
2018-05-15T07:27:06.134Z,48.66
2018-05-15T07:27:47.270Z,46.51
2018-05-15T07:28:23.908Z,46.39
2018-05-15T07:29:01.653Z,47.06
2018-05-15T07:29:37.115Z,46.77
2018-05-15T07:30:12.423Z,47.45
2018-05-15T07:30:47.634Z,47.09
2018-05-15T07:31:22.827Z,47.11
2018-05-15T07:31:58.306Z,46.82
2018-05-15T07:32:36.309Z,47.02
2018-05-15T07:33:11.590Z,46.24
2018-05-15T07:33:50.969Z,45.17
2018-05-15T07:34:26.527Z,45.29
2018-05-15T07:35:01.753Z,45.17
2018-05-15T07:35:40.266Z,45.39
2018-05-15T07:36:15.800Z,45.27
2018-05-15T07:36:51.100Z,46.14
2018-05-15T07:37:26.630Z,46.82
2018-05-15T07:38:02.389Z,45.75
2018-05-15T07:38:38.321Z,46.07
2018-05-15T07:39:13.792Z,45.97
2018-05-15T07:39:49.260Z,45.97
2018-05-15T07:40:24.682Z,45.39
2018-05-15T07:41:02.971Z,45.10
2018-05-15T07:41:38.841Z,44.44
2018-05-15T07:42:14.171Z,44.24
2018-05-15T07:42:52.484Z,44.15
2018-05-15T07:43:27.716Z,44.42
2018-05-15T07:44:03.460Z,45.51